Terminal Aerodrome Forecast
Issued by NWS Jacksonville, FL

Home | Current Version | Previous Version | Text Only | Print | Product List | Glossary On
Versions: 1 2 3 4 5 6 7 8 9 10 11 12 13 14 15 16 17 18 19 20 21 22 23 24 25 26 27
000
FTUS42 KJAX 281734
TAFGNV
TAF
KGNV 281734Z 2818/2918 03007KT P6SM VCTS SCT040CB BKN250
      TEMPO 2819/2823 3SM TSRA BR BKN030CB
     FM282300 09006KT P6SM VCTS SCT040CB BKN250
     FM290200 VRB03KT P6SM SCT250
      TEMPO 2909/2912 5SM BR
     FM291400 31005KT P6SM SCT030=

USA.gov is the U.S. government's official web portal to all federal, state and local government web resources and services.